createdAt,value
2023-04-15T00:01:19.201Z,61.40
2023-04-15T00:03:48.359Z,61.80
2023-04-15T00:06:17.436Z,61.82
2023-04-15T00:08:46.156Z,61.82
2023-04-15T00:11:15.053Z,61.98
2023-04-15T00:13:44.440Z,62.26
2023-04-15T00:16:13.408Z,62.33
2023-04-15T00:18:42.198Z,62.43
2023-04-15T00:21:10.983Z,62.44
2023-04-15T00:23:39.736Z,62.58
2023-04-15T00:26:08.575Z,62.66
2023-04-15T00:28:37.358Z,62.70
2023-04-15T00:31:06.458Z,62.78
2023-04-15T00:33:36.712Z,62.98
2023-04-15T00:36:08.562Z,63.11
2023-04-15T00:38:37.515Z,63.19
2023-04-15T00:41:06.416Z,63.24
2023-04-15T00:43:35.163Z,63.13
2023-04-15T00:46:05.740Z,62.98
2023-04-15T00:48:34.599Z,63.11
2023-04-15T00:51:03.364Z,63.09
2023-04-15T00:53:32.084Z,62.95
2023-04-15T00:56:00.807Z,62.88
2023-04-15T00:58:29.553Z,62.93
2023-04-15T01:00:58.872Z,62.98
2023-04-15T01:03:27.899Z,63.20
2023-04-15T01:05:58.247Z,63.13
2023-04-15T01:08:28.729Z,63.38
2023-04-15T01:10:57.956Z,63.31
2023-04-15T01:13:27.345Z,63.30
2023-04-15T01:15:56.249Z,63.21
2023-04-15T01:18:25.124Z,63.33
2023-04-15T01:20:53.849Z,63.71
2023-04-15T01:23:25.023Z,63.94
2023-04-15T01:25:53.747Z,63.84
2023-04-15T01:28:23.641Z,64.10
2023-04-15T01:30:52.376Z,64.06
2023-04-15T01:33:21.320Z,64.41
2023-04-15T01:35:50.096Z,64.69
2023-04-15T01:38:18.993Z,64.78
2023-04-15T01:40:48.093Z,64.84
2023-04-15T01:43:16.993Z,64.91
2023-04-15T01:45:45.831Z,65.13
2023-04-15T01:48:14.652Z,65.44
2023-04-15T01:50:43.615Z,65.56
2023-04-15T01:53:12.421Z,65.48
2023-04-15T01:55:43.084Z,65.69
2023-04-15T01:58:12.245Z,65.87
2023-04-15T02:00:41.212Z,66.24
2023-04-15T02:03:10.193Z,66.47
2023-04-15T02:05:39.024Z,66.71
2023-04-15T02:08:07.882Z,66.74
2023-04-15T02:10:39.732Z,66.99
2023-04-15T02:13:09.389Z,67.18
2023-04-15T02:15:38.309Z,67.22
2023-04-15T02:18:07.986Z,67.29
2023-04-15T02:20:38.139Z,67.37
2023-04-15T02:23:08.548Z,67.72
2023-04-15T02:25:37.442Z,67.72
2023-04-15T02:28:07.472Z,68.03
2023-04-15T02:30:36.225Z,68.34
2023-04-15T02:33:05.202Z,68.72
2023-04-15T02:35:34.447Z,68.77
2023-04-15T02:38:03.580Z,68.88
2023-04-15T02:40:32.360Z,68.98
2023-04-15T02:43:01.431Z,69.12
2023-04-15T02:45:30.776Z,68.93
2023-04-15T02:48:06.057Z,68.89
2023-04-15T02:50:35.170Z,68.99
2023-04-15T02:53:04.409Z,68.95
2023-04-15T02:55:33.278Z,68.81
2023-04-15T02:58:02.670Z,68.71
2023-04-15T03:00:31.664Z,68.70
2023-04-15T03:03:04.244Z,68.58
2023-04-15T03:05:33.752Z,68.77
2023-04-15T03:08:03.184Z,68.82
2023-04-15T03:10:32.318Z,68.71
2023-04-15T03:13:03.593Z,68.79
2023-04-15T03:15:33.558Z,69.00
2023-04-15T03:18:03.229Z,69.04
2023-04-15T03:20:32.396Z,69.19
2023-04-15T03:23:01.275Z,69.20
2023-04-15T03:25:30.511Z,69.30
2023-04-15T03:27:59.238Z,69.47
2023-04-15T03:30:28.749Z,69.61
2023-04-15T03:32:57.490Z,69.60
2023-04-15T03:35:26.453Z,69.54
2023-04-15T03:37:58.407Z,69.66
2023-04-15T03:40:27.180Z,69.87
2023-04-15T03:42:55.882Z,69.69
2023-04-15T03:45:24.809Z,69.82
2023-04-15T03:47:53.622Z,69.95
2023-04-15T03:50:22.646Z,70.05
2023-04-15T03:52:51.644Z,70.00
2023-04-15T03:55:20.617Z,70.16
2023-04-15T03:57:49.337Z,70.06
2023-04-15T04:00:18.816Z,70.08
2023-04-15T04:02:47.736Z,70.00
2023-04-15T04:05:16.673Z,69.98
2023-04-15T04:07:45.500Z,69.84
2023-04-15T04:10:14.303Z,70.04
2023-04-15T04:12:42.997Z,70.12
2023-04-15T04:15:12.705Z,70.11
2023-04-15T04:17:42.246Z,70.15
2023-04-15T04:20:11.627Z,70.08
2023-04-15T04:22:40.920Z,70.25
2023-04-15T04:25:11.060Z,70.23
2023-04-15T04:27:39.801Z,70.25
2023-04-15T04:30:09.678Z,70.32
2023-04-15T04:32:38.381Z,70.38
2023-04-15T04:35:07.350Z,70.48
2023-04-15T04:37:36.090Z,70.45
2023-04-15T04:40:05.554Z,70.56
2023-04-15T04:42:34.323Z,70.44
2023-04-15T04:45:03.142Z,70.52
2023-04-15T04:47:32.064Z,70.70
2023-04-15T04:50:00.853Z,70.66
2023-04-15T04:52:29.596Z,70.83
2023-04-15T04:54:58.352Z,70.90
2023-04-15T04:57:27.101Z,70.87
2023-04-15T04:59:55.855Z,70.85
2023-04-15T05:02:27.126Z,70.95
2023-04-15T05:04:56.095Z,71.03
2023-04-15T05:07:24.828Z,71.03
2023-04-15T05:09:53.544Z,70.81
2023-04-15T05:12:22.319Z,70.67
2023-04-15T05:14:51.282Z,70.53
2023-04-15T05:17:20.253Z,70.31
2023-04-15T05:19:48.952Z,70.09
2023-04-15T05:22:17.691Z,69.69
2023-04-15T05:24:46.819Z,69.67
2023-04-15T05:27:15.892Z,69.48
2023-04-15T05:29:44.606Z,69.29
2023-04-15T05:32:13.330Z,69.11
2023-04-15T05:34:42.030Z,68.99
2023-04-15T05:37:10.886Z,68.91
2023-04-15T05:39:39.665Z,69.06
2023-04-15T05:42:08.446Z,68.92
2023-04-15T05:44:37.203Z,69.08
2023-04-15T05:47:07.172Z,69.01
2023-04-15T05:49:36.070Z,68.75
2023-04-15T05:52:04.996Z,68.72
2023-04-15T05:54:33.767Z,68.74
2023-04-15T05:57:02.820Z,68.29
2023-04-15T05:59:31.628Z,68.44
2023-04-15T06:02:00.421Z,68.11
2023-04-15T06:04:29.714Z,67.50
2023-04-15T06:06:58.561Z,67.27
2023-04-15T06:09:27.392Z,66.34
2023-04-15T06:11:56.126Z,65.79
2023-04-15T06:14:24.901Z,65.40
2023-04-15T06:16:53.594Z,65.05
2023-04-15T06:19:22.739Z,64.75
2023-04-15T06:21:51.524Z,64.68
2023-04-15T06:24:20.328Z,64.87
2023-04-15T06:26:49.099Z,64.61
2023-04-15T06:29:17.877Z,64.00
2023-04-15T06:31:46.975Z,63.65
2023-04-15T06:34:15.769Z,63.00
2023-04-15T06:36:44.916Z,62.98
2023-04-15T06:39:13.675Z,62.95
2023-04-15T06:41:42.404Z,63.41
2023-04-15T06:44:11.336Z,62.99
2023-04-15T06:46:40.034Z,62.42
2023-04-15T06:49:08.910Z,61.82
2023-04-15T06:51:37.821Z,61.39
2023-04-15T06:54:06.707Z,60.73
2023-04-15T06:56:35.774Z,59.85
2023-04-15T06:59:04.609Z,59.00
2023-04-15T07:01:33.435Z,58.62
2023-04-15T07:04:02.275Z,56.86
2023-04-15T07:06:31.110Z,55.63
2023-04-15T07:09:00.034Z,55.78
2023-04-15T07:11:29.175Z,55.96
2023-04-15T07:13:58.575Z,55.57
2023-04-15T07:16:29.769Z,55.21
2023-04-15T07:18:58.820Z,53.59
2023-04-15T07:21:28.092Z,53.32
2023-04-15T07:23:58.717Z,52.15
2023-04-15T07:26:27.504Z,51.76
2023-04-15T07:28:56.750Z,51.15
2023-04-15T07:31:25.685Z,50.87
2023-04-15T07:33:54.578Z,49.77
2023-04-15T07:36:23.321Z,49.14
2023-04-15T07:38:52.040Z,48.36
2023-04-15T07:41:21.021Z,47.54
2023-04-15T07:43:50.570Z,45.73
2023-04-15T07:46:19.333Z,45.45
2023-04-15T07:48:48.040Z,44.33
2023-04-15T07:51:17.688Z,46.34
2023-04-15T07:53:46.460Z,47.45
2023-04-15T07:56:15.289Z,48.16
2023-04-15T07:58:44.238Z,48.73
2023-04-15T08:01:13.177Z,49.51
2023-04-15T08:03:42.173Z,48.22
2023-04-15T08:06:11.314Z,48.19
2023-04-15T08:08:40.035Z,47.63
2023-04-15T08:11:08.777Z,47.30
2023-04-15T08:13:37.897Z,46.73
2023-04-15T08:16:17.656Z,46.93
2023-04-15T08:18:46.635Z,46.60
2023-04-15T08:21:15.718Z,46.43
2023-04-15T08:23:44.520Z,46.75
2023-04-15T08:26:13.401Z,44.75
2023-04-15T08:28:42.419Z,45.52
2023-04-15T08:31:11.196Z,44.45
2023-04-15T08:33:40.083Z,45.04
2023-04-15T08:36:12.181Z,45.17
2023-04-15T08:38:41.912Z,46.13
2023-04-15T08:41:11.954Z,46.20
2023-04-15T08:43:41.580Z,45.89
2023-04-15T08:46:10.586Z,46.07
2023-04-15T08:48:40.409Z,45.32
2023-04-15T08:51:09.436Z,45.10
2023-04-15T08:53:38.388Z,44.29
2023-04-15T08:56:07.768Z,44.68
2023-04-15T08:58:36.558Z,45.57
2023-04-15T09:01:05.340Z,44.17
2023-04-15T09:03:34.446Z,42.38
2023-04-15T09:06:03.347Z,42.28
2023-04-15T09:08:32.258Z,40.24
2023-04-15T09:11:01.254Z,40.03
2023-04-15T09:13:30.082Z,41.35
2023-04-15T09:15:59.355Z,40.03
2023-04-15T09:18:31.482Z,39.81
2023-04-15T09:21:06.855Z,39.78
2023-04-15T09:23:36.177Z,39.39
2023-04-15T09:26:05.776Z,40.31
2023-04-15T09:28:36.016Z,39.22
2023-04-15T09:31:04.867Z,38.95
2023-04-15T09:33:33.669Z,39.02
2023-04-15T09:36:03.565Z,38.54
2023-04-15T09:38:32.620Z,39.05
2023-04-15T09:41:01.415Z,37.67
2023-04-15T09:43:40.016Z,38.27
2023-04-15T09:46:08.992Z,36.69
2023-04-15T09:48:37.953Z,37.59
2023-04-15T09:51:06.759Z,38.14
2023-04-15T09:53:36.062Z,38.90
2023-04-15T09:56:07.767Z,39.14
2023-04-15T09:58:38.727Z,38.68
2023-04-15T10:01:09.136Z,39.11
2023-04-15T10:03:38.500Z,39.83
2023-04-15T10:06:07.329Z,39.90
2023-04-15T10:08:36.122Z,39.85
2023-04-15T10:11:04.901Z,40.04
2023-04-15T10:13:36.074Z,40.75
2023-04-15T10:16:06.604Z,39.71
2023-04-15T10:18:36.505Z,40.58
2023-04-15T10:21:05.830Z,41.47
2023-04-15T10:23:35.552Z,41.39
2023-04-15T10:26:04.297Z,42.58
2023-04-15T10:28:33.220Z,42.07
2023-04-15T10:31:02.322Z,42.42
2023-04-15T10:33:31.074Z,43.01
2023-04-15T10:35:59.801Z,42.48
2023-04-15T10:38:34.890Z,43.24
2023-04-15T10:41:15.459Z,43.85
2023-04-15T10:43:49.000Z,44.01
2023-04-15T10:46:19.494Z,44.02
2023-04-15T10:48:52.360Z,43.67
2023-04-15T10:51:29.381Z,44.07
2023-04-15T10:54:01.495Z,44.21
2023-04-15T10:56:31.646Z,44.03
2023-04-15T10:59:02.317Z,43.50
2023-04-15T11:01:44.656Z,43.59
2023-04-15T11:04:13.671Z,43.42
2023-04-15T11:06:46.193Z,43.40
2023-04-15T11:09:32.052Z,43.31
2023-04-15T11:12:07.464Z,43.33
2023-04-15T11:14:38.129Z,42.93
2023-04-15T11:17:06.918Z,43.09
2023-04-15T11:19:39.732Z,43.87
2023-04-15T11:22:09.223Z,44.10
2023-04-15T11:24:38.347Z,44.45
2023-04-15T11:27:07.121Z,44.84
2023-04-15T11:29:36.478Z,45.39
2023-04-15T11:32:09.927Z,44.76
2023-04-15T11:34:38.767Z,45.60
2023-04-15T11:37:08.147Z,45.87
2023-04-15T11:39:36.985Z,46.30
2023-04-15T11:42:13.737Z,47.27
2023-04-15T11:44:42.712Z,47.95
2023-04-15T11:47:24.108Z,48.78
2023-04-15T11:49:53.017Z,50.30
2023-04-15T11:52:21.861Z,51.32
2023-04-15T11:54:50.586Z,52.22
2023-04-15T11:57:19.359Z,53.38
2023-04-15T11:59:48.513Z,53.97
2023-04-15T12:02:17.331Z,54.66
2023-04-15T12:04:46.819Z,55.42
2023-04-15T12:07:15.577Z,56.20
2023-04-15T12:09:44.434Z,57.01
2023-04-15T12:12:13.251Z,58.08
2023-04-15T12:14:42.295Z,58.86
2023-04-15T12:17:11.553Z,59.76
2023-04-15T12:19:43.144Z,60.23
2023-04-15T12:22:12.823Z,61.29
2023-04-15T12:24:44.007Z,61.34
2023-04-15T12:27:13.285Z,61.56
2023-04-15T12:29:43.037Z,61.75
2023-04-15T12:32:12.499Z,61.98
2023-04-15T12:34:41.935Z,62.23
2023-04-15T12:37:12.084Z,62.52
2023-04-15T12:39:41.632Z,62.35
2023-04-15T12:42:10.914Z,62.53
2023-04-15T12:44:39.977Z,62.55
2023-04-15T12:47:09.287Z,62.66
2023-04-15T12:49:38.186Z,62.32
2023-04-15T12:52:07.283Z,62.62
2023-04-15T12:54:36.684Z,62.63
2023-04-15T12:57:07.469Z,63.49
2023-04-15T12:59:37.634Z,63.60
2023-04-15T13:02:06.685Z,64.27
2023-04-15T13:04:35.879Z,64.22
2023-04-15T13:07:05.184Z,64.65
2023-04-15T13:09:34.191Z,64.68
2023-04-15T13:12:08.887Z,64.65
2023-04-15T13:14:38.001Z,65.20
2023-04-15T13:17:10.356Z,65.82
2023-04-15T13:19:39.645Z,65.91
2023-04-15T13:22:08.912Z,65.85
2023-04-15T13:24:42.090Z,66.45
2023-04-15T13:27:11.185Z,66.70
2023-04-15T13:29:40.385Z,66.82
2023-04-15T13:32:09.363Z,66.81
2023-04-15T13:34:38.754Z,66.87
2023-04-15T13:37:10.899Z,66.95
2023-04-15T13:39:40.128Z,66.66
2023-04-15T13:42:09.351Z,66.67
2023-04-15T13:44:38.818Z,67.07
2023-04-15T13:47:07.967Z,67.12
2023-04-15T13:49:37.569Z,66.89
2023-04-15T13:52:06.764Z,67.09
2023-04-15T13:54:37.908Z,67.26
2023-04-15T13:57:07.991Z,67.72
2023-04-15T13:59:36.889Z,68.16
2023-04-15T14:02:06.189Z,68.22
2023-04-15T14:04:36.144Z,68.31
2023-04-15T14:07:05.484Z,67.97
2023-04-15T14:09:35.420Z,67.92
2023-04-15T14:12:05.225Z,67.80
2023-04-15T14:14:34.226Z,68.06
2023-04-15T14:17:04.758Z,68.39
2023-04-15T14:19:33.989Z,68.51
2023-04-15T14:22:03.974Z,68.76
2023-04-15T14:24:33.136Z,69.26
2023-04-15T14:27:02.183Z,69.49
2023-04-15T14:29:31.057Z,69.65
2023-04-15T14:32:04.313Z,70.11
2023-04-15T14:34:41.965Z,70.03
2023-04-15T14:37:11.458Z,70.13
2023-04-15T14:39:40.684Z,70.44
2023-04-15T14:42:09.697Z,70.31
2023-04-15T14:44:38.982Z,70.60
2023-04-15T14:47:07.909Z,70.41
2023-04-15T14:49:36.684Z,70.62
2023-04-15T14:52:05.508Z,70.95
2023-04-15T14:54:34.381Z,71.20
2023-04-15T14:57:03.204Z,71.36
2023-04-15T14:59:31.975Z,71.43
2023-04-15T15:02:01.119Z,71.69
2023-04-15T15:04:30.514Z,72.07
2023-04-15T15:06:59.517Z,72.40
2023-04-15T15:09:28.969Z,72.33
2023-04-15T15:11:57.886Z,72.50
2023-04-15T15:14:27.124Z,72.59
2023-04-15T15:16:56.016Z,72.61
2023-04-15T15:19:25.069Z,72.87
2023-04-15T15:21:53.975Z,73.03
2023-04-15T15:24:22.813Z,72.90
2023-04-15T15:26:51.545Z,73.02
2023-04-15T15:29:20.339Z,73.68
2023-04-15T15:31:49.480Z,73.65
2023-04-15T15:34:18.434Z,73.79
2023-04-15T15:36:47.434Z,73.84
2023-04-15T15:39:16.364Z,73.72
2023-04-15T15:41:45.727Z,74.32
2023-04-15T15:44:14.634Z,74.61
2023-04-15T15:46:43.502Z,74.51
2023-04-15T15:49:12.385Z,74.39
2023-04-15T15:51:41.226Z,75.11
2023-04-15T15:54:10.453Z,74.91
2023-04-15T15:56:39.578Z,74.79
2023-04-15T15:59:08.637Z,74.69
2023-04-15T16:01:37.549Z,75.39
2023-04-15T16:04:07.009Z,75.74
2023-04-15T16:06:36.333Z,75.71
2023-04-15T16:09:05.440Z,75.37
2023-04-15T16:11:34.404Z,75.17
2023-04-15T16:14:03.202Z,75.35
2023-04-15T16:16:31.987Z,75.86
2023-04-15T16:19:00.803Z,76.00
2023-04-15T16:21:29.715Z,75.76
2023-04-15T16:23:58.531Z,75.63
2023-04-15T16:26:27.437Z,75.95
2023-04-15T16:28:56.433Z,76.01
2023-04-15T16:31:25.436Z,76.17
2023-04-15T16:33:54.203Z,76.27
2023-04-15T16:36:23.004Z,76.22
2023-04-15T16:38:52.467Z,76.40
2023-04-15T16:41:21.271Z,76.47
2023-04-15T16:43:50.072Z,76.51
2023-04-15T16:46:18.935Z,76.51
2023-04-15T16:48:47.802Z,76.65
2023-04-15T16:51:16.687Z,76.73
2023-04-15T16:53:45.509Z,76.91
2023-04-15T16:56:14.505Z,76.85
2023-04-15T16:58:45.578Z,76.82
2023-04-15T17:01:14.588Z,76.72
2023-04-15T17:03:43.673Z,76.88
2023-04-15T17:06:12.690Z,77.04
2023-04-15T17:08:41.438Z,77.00
2023-04-15T17:11:10.221Z,76.92
2023-04-15T17:13:39.100Z,77.00
2023-04-15T17:16:08.883Z,77.10
2023-04-15T17:18:39.620Z,77.18
2023-04-15T17:21:08.391Z,77.19
2023-04-15T17:23:37.348Z,77.09
2023-04-15T17:26:06.243Z,77.30
2023-04-15T17:28:35.143Z,77.20
2023-04-15T17:31:04.461Z,77.00
2023-04-15T17:34:00.425Z,77.06
2023-04-15T17:36:22.485Z,77.00
2023-04-15T17:38:51.426Z,77.16
2023-04-15T17:41:20.321Z,77.32
2023-04-15T17:43:49.117Z,77.48
2023-04-15T17:46:19.385Z,77.64
2023-04-15T17:48:49.381Z,77.86
2023-04-15T17:51:18.205Z,77.95
2023-04-15T17:53:47.489Z,78.14
2023-04-15T17:56:16.785Z,78.28
2023-04-15T17:58:45.666Z,78.42
2023-04-15T18:01:14.694Z,78.66
2023-04-15T18:03:43.722Z,78.71
2023-04-15T18:06:12.936Z,79.06
2023-04-15T18:08:41.722Z,79.18
2023-04-15T18:11:12.274Z,79.37
2023-04-15T18:13:42.642Z,79.44
2023-04-15T18:16:12.583Z,79.57
2023-04-15T18:18:41.537Z,79.71
2023-04-15T18:21:12.987Z,80.09
2023-04-15T18:23:43.167Z,80.02
2023-04-15T18:26:11.994Z,80.19
2023-04-15T18:28:41.475Z,80.21
2023-04-15T18:31:10.302Z,80.18
2023-04-15T18:33:39.975Z,80.21
2023-04-15T18:36:08.967Z,80.34
2023-04-15T18:38:38.079Z,80.25
2023-04-15T18:41:08.817Z,80.28
2023-04-15T18:43:38.744Z,80.19
2023-04-15T18:46:10.177Z,79.88
2023-04-15T18:48:39.561Z,79.76
2023-04-15T18:51:08.316Z,79.74
2023-04-15T18:53:37.251Z,79.75
2023-04-15T18:56:06.531Z,79.61
2023-04-15T18:59:09.533Z,79.64
2023-04-15T19:01:24.870Z,79.60
2023-04-15T19:03:54.195Z,79.41
2023-04-15T19:06:23.248Z,79.34
2023-04-15T19:08:53.176Z,79.48
2023-04-15T19:11:22.074Z,79.33
2023-04-15T19:13:52.718Z,79.49
2023-04-15T19:16:21.865Z,79.27
2023-04-15T19:18:50.708Z,78.84
2023-04-15T19:21:19.657Z,78.79
2023-04-15T19:23:48.526Z,78.75
2023-04-15T19:26:17.434Z,78.60
2023-04-15T19:28:46.258Z,78.44
2023-04-15T19:31:15.201Z,78.35
2023-04-15T19:33:44.579Z,78.24
2023-04-15T19:36:13.695Z,78.20
2023-04-15T19:38:42.435Z,78.24
2023-04-15T19:41:11.318Z,78.23
2023-04-15T19:43:40.095Z,78.18
2023-04-15T19:46:09.303Z,78.15
2023-04-15T19:48:38.603Z,78.11
2023-04-15T19:51:07.864Z,78.02
2023-04-15T19:53:36.891Z,78.27
2023-04-15T19:56:06.296Z,78.24
2023-04-15T19:58:35.296Z,78.08
2023-04-15T20:01:04.303Z,78.09
2023-04-15T20:03:33.268Z,78.12
2023-04-15T20:06:02.233Z,78.09
2023-04-15T20:08:31.148Z,78.11
2023-04-15T20:11:01.184Z,78.13
2023-04-15T20:13:30.078Z,78.03
2023-04-15T20:16:13.076Z,78.16
2023-04-15T20:18:42.060Z,78.03
2023-04-15T20:21:10.936Z,77.84
2023-04-15T20:23:43.153Z,77.93
2023-04-15T20:26:12.199Z,77.84
2023-04-15T20:28:41.270Z,77.74
2023-04-15T20:31:10.687Z,77.81
2023-04-15T20:33:42.091Z,77.75
2023-04-15T20:36:10.973Z,77.94
2023-04-15T20:38:40.019Z,77.82
2023-04-15T20:41:08.863Z,78.03
2023-04-15T20:43:37.770Z,78.02
2023-04-15T20:46:19.845Z,77.87
2023-04-15T20:48:50.341Z,77.97
2023-04-15T20:51:19.094Z,78.11
2023-04-15T20:53:47.872Z,78.09
2023-04-15T20:56:16.983Z,78.03
2023-04-15T20:58:46.830Z,78.04
2023-04-15T21:01:16.596Z,77.92
2023-04-15T21:03:45.975Z,77.92
2023-04-15T21:06:15.051Z,77.92
2023-04-15T21:08:44.297Z,77.92
2023-04-15T21:11:18.870Z,77.99
2023-04-15T21:13:57.961Z,78.01
2023-04-15T21:16:27.713Z,78.02
2023-04-15T21:18:56.827Z,78.02
2023-04-15T21:21:26.813Z,78.13
2023-04-15T21:23:55.636Z,78.39
2023-04-15T21:26:24.447Z,78.56
2023-04-15T21:28:53.353Z,78.85
2023-04-15T21:31:22.492Z,78.99
2023-04-15T21:33:51.705Z,79.31
2023-04-15T21:36:20.535Z,79.41
2023-04-15T21:38:49.782Z,79.53
2023-04-15T21:41:21.229Z,79.76
2023-04-15T21:43:51.219Z,80.01
2023-04-15T21:46:24.523Z,80.11
2023-04-15T21:48:55.031Z,80.21
2023-04-15T21:51:24.159Z,80.22
2023-04-15T21:53:54.583Z,80.54
2023-04-15T21:56:24.720Z,80.86
2023-04-15T21:58:55.161Z,80.91
2023-04-15T22:01:24.123Z,80.91
2023-04-15T22:03:53.507Z,80.83
2023-04-15T22:06:27.371Z,80.97
2023-04-15T22:08:57.810Z,81.17
2023-04-15T22:11:28.363Z,81.12
2023-04-15T22:13:57.876Z,81.38
2023-04-15T22:16:27.177Z,81.65
2023-04-15T22:18:56.586Z,81.64
2023-04-15T22:21:25.527Z,81.69
2023-04-15T22:24:38.043Z,81.62
2023-04-15T22:26:44.131Z,81.54
2023-04-15T22:29:13.099Z,81.58
2023-04-15T22:31:42.475Z,81.66
2023-04-15T22:34:11.586Z,81.53
2023-04-15T22:36:40.706Z,81.57
2023-04-15T22:39:09.590Z,81.56
2023-04-15T22:41:38.338Z,81.54
2023-04-15T22:44:07.154Z,81.41
2023-04-15T22:46:36.163Z,81.27
2023-04-15T22:49:06.560Z,81.03
2023-04-15T22:51:36.893Z,80.87
2023-04-15T22:54:05.606Z,80.83
2023-04-15T22:56:34.359Z,80.69
2023-04-15T22:59:03.292Z,80.47
2023-04-15T23:01:32.380Z,80.32
2023-04-15T23:04:10.435Z,79.90
2023-04-15T23:06:50.787Z,79.75
2023-04-15T23:09:19.642Z,79.65
2023-04-15T23:11:48.446Z,79.56
2023-04-15T23:14:17.188Z,79.53
2023-04-15T23:16:46.733Z,79.48
2023-04-15T23:19:15.865Z,79.33
2023-04-15T23:21:44.633Z,79.23
2023-04-15T23:24:13.721Z,79.25
2023-04-15T23:26:43.291Z,79.29
2023-04-15T23:29:12.162Z,79.33
2023-04-15T23:31:41.785Z,79.25
2023-04-15T23:34:10.900Z,79.45
2023-04-15T23:36:39.650Z,79.40
2023-04-15T23:39:08.715Z,79.40
2023-04-15T23:41:37.879Z,79.39
2023-04-15T23:44:07.179Z,79.41
2023-04-15T23:46:36.667Z,79.22
2023-04-15T23:49:05.712Z,79.40
2023-04-15T23:51:34.470Z,79.37
2023-04-15T23:54:03.716Z,79.35
2023-04-15T23:56:32.765Z,79.41
2023-04-15T23:59:01.571Z,79.39
